sensor_id;sensor_type;location;lat;lon;timestamp;pressure;altitude;pressure_sealevel;temperature;humidity
46614;BME280;32338;50.430;6.806;2023-11-18T00:00:27;65553.13;;;1.22;100.00
46614;BME280;32338;50.430;6.806;2023-11-18T00:02:54;65552.44;;;1.26;100.00
46614;BME280;32338;50.430;6.806;2023-11-18T00:05:21;65554.78;;;1.23;100.00
46614;BME280;32338;50.430;6.806;2023-11-18T00:07:49;65548.88;;;1.20;100.00
46614;BME280;32338;50.430;6.806;2023-11-18T00:10:15;65540.47;;;1.12;100.00
46614;BME280;32338;50.430;6.806;2023-11-18T00:12:42;65538.59;;;1.08;100.00
46614;BME280;32338;50.430;6.806;2023-11-18T00:15:09;65534.34;;;1.07;100.00
46614;BME280;32338;50.430;6.806;2023-11-18T00:17:38;65550.34;;;1.19;100.00
46614;BME280;32338;50.430;6.806;2023-11-18T00:20:06;65548.31;;;1.20;100.00
46614;BME280;32338;50.430;6.806;2023-11-18T00:22:34;65559.84;;;1.28;100.00
46614;BME280;32338;50.430;6.806;2023-11-18T00:25:01;65562.84;;;1.33;100.00
46614;BME280;32338;50.430;6.806;2023-11-18T00:27:30;65577.50;;;1.42;100.00
46614;BME280;32338;50.430;6.806;2023-11-18T00:29:57;65583.09;;;1.47;100.00
46614;BME280;32338;50.430;6.806;2023-11-18T00:32:23;65573.78;;;1.41;100.00
46614;BME280;32338;50.430;6.806;2023-11-18T00:34:51;65568.22;;;1.36;100.00
46614;BME280;32338;50.430;6.806;2023-11-18T00:37:18;65574.50;;;1.37;100.00
46614;BME280;32338;50.430;6.806;2023-11-18T00:39:44;65579.72;;;1.44;100.00
46614;BME280;32338;50.430;6.806;2023-11-18T00:42:11;65575.66;;;1.45;100.00
46614;BME280;32338;50.430;6.806;2023-11-18T00:44:38;65581.97;;;1.46;100.00
46614;BME280;32338;50.430;6.806;2023-11-18T00:47:04;65583.63;;;1.48;100.00
46614;BME280;32338;50.430;6.806;2023-11-18T00:49:31;65568.84;;;1.43;100.00
46614;BME280;32338;50.430;6.806;2023-11-18T00:52:00;65578.47;;;1.48;100.00
46614;BME280;32338;50.430;6.806;2023-11-18T00:54:27;65579.59;;;1.49;100.00
46614;BME280;32338;50.430;6.806;2023-11-18T00:56:53;65577.38;;;1.47;100.00
46614;BME280;32338;50.430;6.806;2023-11-18T00:59:20;65586.09;;;1.52;100.00
46614;BME280;32338;50.430;6.806;2023-11-18T01:01:47;65592.03;;;1.55;100.00
46614;BME280;32338;50.430;6.806;2023-11-18T01:04:14;65593.56;;;1.61;100.00
46614;BME280;32338;50.430;6.806;2023-11-18T01:06:42;65594.25;;;1.57;100.00
46614;BME280;32338;50.430;6.806;2023-11-18T01:09:10;65592.44;;;1.60;100.00
46614;BME280;32338;50.430;6.806;2023-11-18T01:11:37;65595.03;;;1.60;100.00
46614;BME280;32338;50.430;6.806;2023-11-18T01:14:04;65599.50;;;1.65;100.00
46614;BME280;32338;50.430;6.806;2023-11-18T01:16:31;65595.78;;;1.64;100.00
46614;BME280;32338;50.430;6.806;2023-11-18T01:18:58;65609.34;;;1.71;100.00
46614;BME280;32338;50.430;6.806;2023-11-18T01:21:25;65608.44;;;1.73;100.00
46614;BME280;32338;50.430;6.806;2023-11-18T01:23:52;65611.25;;;1.75;100.00
46614;BME280;32338;50.430;6.806;2023-11-18T01:26:20;65611.44;;;1.78;100.00
46614;BME280;32338;50.430;6.806;2023-11-18T01:28:48;65617.38;;;1.81;100.00
46614;BME280;32338;50.430;6.806;2023-11-18T01:31:15;65627.47;;;1.90;100.00
46614;BME280;32338;50.430;6.806;2023-11-18T01:33:42;65622.56;;;1.81;100.00
46614;BME280;32338;50.430;6.806;2023-11-18T01:36:10;65608.44;;;1.73;100.00
46614;BME280;32338;50.430;6.806;2023-11-18T01:38:38;65605.09;;;1.70;100.00
46614;BME280;32338;50.430;6.806;2023-11-18T01:41:05;65607.53;;;1.74;100.00
46614;BME280;32338;50.430;6.806;2023-11-18T01:43:33;65610.13;;;1.74;100.00
46614;BME280;32338;50.430;6.806;2023-11-18T01:46:03;65616.25;;;1.80;100.00
46614;BME280;32338;50.430;6.806;2023-11-18T01:48:30;65621.09;;;1.82;100.00
46614;BME280;32338;50.430;6.806;2023-11-18T01:50:59;65618.16;;;1.84;100.00
46614;BME280;32338;50.430;6.806;2023-11-18T01:53:28;65621.72;;;1.90;100.00
46614;BME280;32338;50.430;6.806;2023-11-18T01:55:55;65630.81;;;1.93;100.00
46614;BME280;32338;50.430;6.806;2023-11-18T01:58:24;65641.56;;;1.99;100.00
46614;BME280;32338;50.430;6.806;2023-11-18T02:00:54;65634.38;;;1.99;100.00
46614;BME280;32338;50.430;6.806;2023-11-18T02:03:21;65643.44;;;2.03;100.00
46614;BME280;32338;50.430;6.806;2023-11-18T02:05:48;65640.31;;;2.02;100.00
46614;BME280;32338;50.430;6.806;2023-11-18T02:08:17;65651.63;;;2.08;100.00
46614;BME280;32338;50.430;6.806;2023-11-18T02:10:47;65653.94;;;2.17;100.00
46614;BME280;32338;50.430;6.806;2023-11-18T02:13:21;65666.94;;;2.24;100.00
46614;BME280;32338;50.430;6.806;2023-11-18T02:15:54;65671.28;;;2.33;100.00
46614;BME280;32338;50.430;6.806;2023-11-18T02:18:24;65671.28;;;2.33;100.00
46614;BME280;32338;50.430;6.806;2023-11-18T02:20:53;65679.09;;;2.40;100.00
46614;BME280;32338;50.430;6.806;2023-11-18T02:23:22;65678.31;;;2.37;100.00
46614;BME280;32338;50.430;6.806;2023-11-18T02:25:51;65675.53;;;2.35;100.00
46614;BME280;32338;50.430;6.806;2023-11-18T02:28:18;65674.41;;;2.34;100.00
46614;BME280;32338;50.430;6.806;2023-11-18T02:30:45;65673.66;;;2.31;100.00
46614;BME280;32338;50.430;6.806;2023-11-18T02:33:18;65666.56;;;2.26;100.00
46614;BME280;32338;50.430;6.806;2023-11-18T02:35:49;65657.84;;;2.21;100.00
46614;BME280;32338;50.430;6.806;2023-11-18T02:38:22;65663.44;;;2.26;100.00
46614;BME280;32338;50.430;6.806;2023-11-18T02:40:52;65661.19;;;2.24;100.00
46614;BME280;32338;50.430;6.806;2023-11-18T02:43:24;65650.03;;;2.14;100.00
46614;BME280;32338;50.430;6.806;2023-11-18T02:45:51;65647.44;;;2.14;100.00
46614;BME280;32338;50.430;6.806;2023-11-18T02:48:20;65648.69;;;2.10;100.00
46614;BME280;32338;50.430;6.806;2023-11-18T02:50:46;65648.00;;;2.14;100.00
46614;BME280;32338;50.430;6.806;2023-11-18T02:53:13;65655.41;;;2.16;100.00
46614;BME280;32338;50.430;6.806;2023-11-18T02:55:39;65660.09;;;2.23;100.00
46614;BME280;32338;50.430;6.806;2023-11-18T02:58:08;65664.16;;;2.22;100.00
46614;BME280;32338;50.430;6.806;2023-11-18T03:00:35;65655.81;;;2.21;100.00
46614;BME280;32338;50.430;6.806;2023-11-18T03:03:03;65663.56;;;2.21;100.00
46614;BME280;32338;50.430;6.806;2023-11-18T03:05:30;65671.41;;;2.29;100.00
46614;BME280;32338;50.430;6.806;2023-11-18T03:07:58;65665.47;;;2.25;100.00
46614;BME280;32338;50.430;6.806;2023-11-18T03:10:24;65686.50;;;2.42;100.00
46614;BME280;32338;50.430;6.806;2023-11-18T03:12:52;65686.88;;;2.40;100.00
46614;BME280;32338;50.430;6.806;2023-11-18T03:15:21;65669.16;;;2.26;100.00
46614;BME280;32338;50.430;6.806;2023-11-18T03:17:48;65670.50;;;2.30;100.00
46614;BME280;32338;50.430;6.806;2023-11-18T03:20:16;65677.41;;;2.39;100.00
46614;BME280;32338;50.430;6.806;2023-11-18T03:22:43;65682.75;;;2.34;100.00
46614;BME280;32338;50.430;6.806;2023-11-18T03:25:10;65670.50;;;2.30;100.00
46614;BME280;32338;50.430;6.806;2023-11-18T03:27:37;65671.06;;;2.31;100.00
46614;BME280;32338;50.430;6.806;2023-11-18T03:30:05;65668.47;;;2.31;100.00
46614;BME280;32338;50.430;6.806;2023-11-18T03:32:34;65697.13;;;2.52;100.00
46614;BME280;32338;50.430;6.806;2023-11-18T03:35:01;65698.81;;;2.54;100.00
46614;BME280;32338;50.430;6.806;2023-11-18T03:37:28;65694.75;;;2.55;100.00
46614;BME280;32338;50.430;6.806;2023-11-18T03:39:54;65691.19;;;2.49;100.00
46614;BME280;32338;50.430;6.806;2023-11-18T03:42:21;65685.97;;;2.42;100.00
46614;BME280;32338;50.430;6.806;2023-11-18T03:44:48;65681.69;;;2.40;100.00
46614;BME280;32338;50.430;6.806;2023-11-18T03:47:14;65686.16;;;2.45;100.00
46614;BME280;32338;50.430;6.806;2023-11-18T03:49:42;65681.91;;;2.43;100.00
46614;BME280;32338;50.430;6.806;2023-11-18T03:52:09;65683.72;;;2.40;100.00
46614;BME280;32338;50.430;6.806;2023-11-18T03:54:36;65684.50;;;2.43;100.00
46614;BME280;32338;50.430;6.806;2023-11-18T03:57:02;65690.84;;;2.51;100.00
46614;BME280;32338;50.430;6.806;2023-11-18T03:59:30;65691.19;;;2.49;100.00
46614;BME280;32338;50.430;6.806;2023-11-18T04:01:57;65681.91;;;2.43;100.00
46614;BME280;32338;50.430;6.806;2023-11-18T04:04:23;65690.44;;;2.46;100.00
46614;BME280;32338;50.430;6.806;2023-11-18T04:06:51;65694.22;;;2.54;100.00
46614;BME280;32338;50.430;6.806;2023-11-18T04:09:18;65691.75;;;2.50;100.00
46614;BME280;32338;50.430;6.806;2023-11-18T04:11:45;65684.69;;;2.46;100.00
46614;BME280;32338;50.430;6.806;2023-11-18T04:14:11;65684.50;;;2.43;100.00
46614;BME280;32338;50.430;6.806;2023-11-18T04:16:38;65702.72;;;2.57;100.00
46614;BME280;32338;50.430;6.806;2023-11-18T04:19:05;65687.84;;;2.46;100.00
46614;BME280;32338;50.430;6.806;2023-11-18T04:21:31;65680.78;;;2.42;100.00
46614;BME280;32338;50.430;6.806;2023-11-18T04:24:00;65677.41;;;2.39;100.00
46614;BME280;32338;50.430;6.806;2023-11-18T04:26:26;65678.53;;;2.40;100.00
46614;BME280;32338;50.430;6.806;2023-11-18T04:28:53;65690.63;;;2.49;100.00
46614;BME280;32338;50.430;6.806;2023-11-18T04:31:20;65694.56;;;2.52;100.00
46614;BME280;32338;50.430;6.806;2023-11-18T04:33:47;65690.09;;;2.48;100.00
46614;BME280;32338;50.430;6.806;2023-11-18T04:36:14;65692.31;;;2.50;100.00
46614;BME280;32338;50.430;6.806;2023-11-18T04:38:41;65679.66;;;2.41;100.00
46614;BME280;32338;50.430;6.806;2023-11-18T04:41:10;65692.31;;;2.50;100.00
46614;BME280;32338;50.430;6.806;2023-11-18T04:43:36;65692.31;;;2.50;100.00
46614;BME280;32338;50.430;6.806;2023-11-18T04:46:05;65688.19;;;2.44;100.00
46614;BME280;32338;50.430;6.806;2023-11-18T04:48:31;65687.28;;;2.46;100.00
46614;BME280;32338;50.430;6.806;2023-11-18T04:50:59;65693.78;;;2.49;100.00
46614;BME280;32338;50.430;6.806;2023-11-18T04:53:26;65689.50;;;2.48;100.00
46614;BME280;32338;50.430;6.806;2023-11-18T04:55:52;65687.28;;;2.46;100.00
46614;BME280;32338;50.430;6.806;2023-11-18T04:58:20;65699.78;;;2.59;100.00
46614;BME280;32338;50.430;6.806;2023-11-18T05:00:47;65694.22;;;2.54;100.00
46614;BME280;32338;50.430;6.806;2023-11-18T05:03:16;65689.72;;;2.50;100.00
46614;BME280;32338;50.430;6.806;2023-11-18T05:05:42;65687.84;;;2.46;100.00
46614;BME280;32338;50.430;6.806;2023-11-18T05:08:18;65687.28;;;2.46;100.00
46614;BME280;32338;50.430;6.806;2023-11-18T05:10:46;65687.06;;;2.43;100.00
46614;BME280;32338;50.430;6.806;2023-11-18T05:13:13;65688.97;;;2.47;100.00
46614;BME280;32338;50.430;6.806;2023-11-18T05:15:43;65697.69;;;2.53;100.00
46614;BME280;32338;50.430;6.806;2023-11-18T05:18:11;65685.81;;;2.47;100.00
46614;BME280;32338;50.430;6.806;2023-11-18T05:20:40;65689.50;;;2.48;100.00
46614;BME280;32338;50.430;6.806;2023-11-18T05:23:06;65684.69;;;2.46;100.00
46614;BME280;32338;50.430;6.806;2023-11-18T05:25:35;65683.38;;;2.42;100.00
46614;BME280;32338;50.430;6.806;2023-11-18T05:28:02;65706.50;;;2.66;100.00
46614;BME280;32338;50.430;6.806;2023-11-18T05:30:28;65704.97;;;2.59;100.00
46614;BME280;32338;50.430;6.806;2023-11-18T05:32:57;65705.94;;;2.65;100.00
46614;BME280;32338;50.430;6.806;2023-11-18T05:35:24;65703.84;;;2.58;100.00
46614;BME280;32338;50.430;6.806;2023-11-18T05:37:54;65702.38;;;2.59;100.00
46614;BME280;32338;50.430;6.806;2023-11-18T05:40:20;65701.47;;;2.61;100.00
46614;BME280;32338;50.430;6.806;2023-11-18T05:42:48;65704.06;;;2.61;100.00
46614;BME280;32338;50.430;6.806;2023-11-18T05:45:17;65708.53;;;2.65;100.00
46614;BME280;32338;50.430;6.806;2023-11-18T05:47:53;65702.03;;;2.62;100.00
46614;BME280;32338;50.430;6.806;2023-11-18T05:50:22;65702.03;;;2.62;100.00
46614;BME280;32338;50.430;6.806;2023-11-18T05:52:50;65698.13;;;2.58;100.00
46614;BME280;32338;50.430;6.806;2023-11-18T05:55:16;65706.84;;;2.64;100.00
46614;BME280;32338;50.430;6.806;2023-11-18T05:57:43;65713.91;;;2.68;100.00
46614;BME280;32338;50.430;6.806;2023-11-18T06:00:11;65712.66;;;2.71;100.00
46614;BME280;32338;50.430;6.806;2023-11-18T06:02:40;65714.13;;;2.70;100.00
46614;BME280;32338;50.430;6.806;2023-11-18T06:05:07;65723.09;;;2.79;100.00
46614;BME280;32338;50.430;6.806;2023-11-18T06:07:35;65734.06;;;2.86;100.00
46614;BME280;32338;50.430;6.806;2023-11-18T06:10:02;65727.00;;;2.82;100.00
46614;BME280;32338;50.430;6.806;2023-11-18T06:12:30;65713.44;;;2.74;100.00
46614;BME280;32338;50.430;6.806;2023-11-18T06:14:57;65716.03;;;2.74;100.00
46614;BME280;32338;50.430;6.806;2023-11-18T06:17:24;65727.34;;;2.80;100.00
46614;BME280;32338;50.430;6.806;2023-11-18T06:19:51;65725.53;;;2.83;100.00
46614;BME280;32338;50.430;6.806;2023-11-18T06:22:17;65714.91;;;2.73;100.00
46614;BME280;32338;50.430;6.806;2023-11-18T06:24:46;65715.81;;;2.72;100.00
46614;BME280;32338;50.430;6.806;2023-11-18T06:27:13;65719.72;;;2.75;100.00
46614;BME280;32338;50.430;6.806;2023-11-18T06:29:41;65714.91;;;2.73;100.00
46614;BME280;32338;50.430;6.806;2023-11-18T06:32:07;65724.75;;;2.80;100.00
46614;BME280;32338;50.430;6.806;2023-11-18T06:34:34;65730.00;;;2.87;100.00
46614;BME280;32338;50.430;6.806;2023-11-18T06:37:03;65737.28;;;2.94;100.00
46614;BME280;32338;50.430;6.806;2023-11-18T06:39:30;65734.84;;;2.89;100.00
46614;BME280;32338;50.430;6.806;2023-11-18T06:42:01;65726.44;;;2.82;100.00
46614;BME280;32338;50.430;6.806;2023-11-18T06:44:30;65732.03;;;2.87;100.00
46614;BME280;32338;50.430;6.806;2023-11-18T06:46:56;65735.25;;;2.95;100.00
46614;BME280;32338;50.430;6.806;2023-11-18T06:49:24;65743.28;;;3.04;100.00
46614;BME280;32338;50.430;6.806;2023-11-18T06:51:50;65738.59;;;2.98;100.00
46614;BME280;32338;50.430;6.806;2023-11-18T06:54:18;65738.75;;;2.93;100.00
46614;BME280;32338;50.430;6.806;2023-11-18T06:56:44;65738.19;;;2.92;100.00
46614;BME280;32338;50.430;6.806;2023-11-18T06:59:13;65741.19;;;2.98;100.00
46614;BME280;32338;50.430;6.806;2023-11-18T07:01:40;65735.19;;;2.87;100.00
46614;BME280;32338;50.430;6.806;2023-11-18T07:04:07;65742.88;;;2.99;100.00
46614;BME280;32338;50.430;6.806;2023-11-18T07:06:34;65761.13;;;3.14;100.00
46614;BME280;32338;50.430;6.806;2023-11-18T07:09:04;65748.28;;;3.02;100.00
46614;BME280;32338;50.430;6.806;2023-11-18T07:11:38;65755.53;;;3.08;100.00
46614;BME280;32338;50.430;6.806;2023-11-18T07:14:04;65762.06;;;3.12;100.00
46614;BME280;32338;50.430;6.806;2023-11-18T07:16:33;65755.19;;;3.11;100.00
46614;BME280;32338;50.430;6.806;2023-11-18T07:19:00;65751.06;;;3.04;100.00
46614;BME280;32338;50.430;6.806;2023-11-18T07:21:28;65746.22;;;3.02;100.00
46614;BME280;32338;50.430;6.806;2023-11-18T07:23:55;65739.94;;;3.01;100.00
46614;BME280;32338;50.430;6.806;2023-11-18T07:26:22;65752.41;;;3.08;100.00
46614;BME280;32338;50.430;6.806;2023-11-18T07:28:49;65754.28;;;3.12;100.00
46614;BME280;32338;50.430;6.806;2023-11-18T07:31:17;65765.97;;;3.16;100.00
46614;BME280;32338;50.430;6.806;2023-11-18T07:33:45;65769.53;;;3.21;100.00
46614;BME280;32338;50.430;6.806;2023-11-18T07:36:14;65769.88;;;3.19;100.00
46614;BME280;32338;50.430;6.806;2023-11-18T07:38:41;65764.72;;;3.19;100.00
46614;BME280;32338;50.430;6.806;2023-11-18T07:41:07;65769.72;;;3.24;100.00
46614;BME280;32338;50.430;6.806;2023-11-18T07:43:33;65770.66;;;3.22;100.00
46614;BME280;32338;50.430;6.806;2023-11-18T07:46:01;65791.34;;;3.41;100.00
46614;BME280;32338;50.430;6.806;2023-11-18T07:48:28;65797.88;;;3.45;100.00
46614;BME280;32338;50.430;6.806;2023-11-18T07:50:57;65791.00;;;3.44;100.00
46614;BME280;32338;50.430;6.806;2023-11-18T07:53:24;65788.34;;;3.36;100.00
46614;BME280;32338;50.430;6.806;2023-11-18T07:55:54;65776.66;;;3.33;100.00
46614;BME280;32338;50.430;6.806;2023-11-18T07:58:21;65795.63;;;3.43;100.00
46614;BME280;32338;50.430;6.806;2023-11-18T08:00:48;65798.47;;;3.53;100.00
46614;BME280;32338;50.430;6.806;2023-11-18T08:03:15;65791.34;;;3.41;100.00
46614;BME280;32338;50.430;6.806;2023-11-18T08:05:43;65806.69;;;3.58;100.00
46614;BME280;32338;50.430;6.806;2023-11-18T08:08:11;65803.53;;;3.57;100.00
46614;BME280;32338;50.430;6.806;2023-11-18T08:10:39;65803.66;;;3.53;100.00
46614;BME280;32338;50.430;6.806;2023-11-18T08:13:08;65792.28;;;3.40;100.00
46614;BME280;32338;50.430;6.806;2023-11-18T08:15:37;65787.09;;;3.40;100.00
46614;BME280;32338;50.430;6.806;2023-11-18T08:18:04;65790.47;;;3.43;100.00
46614;BME280;32338;50.430;6.806;2023-11-18T08:20:31;65803.31;;;3.55;100.00
46614;BME280;32338;50.430;6.806;2023-11-18T08:22:58;65817.47;;;3.63;100.00
46614;BME280;32338;50.430;6.806;2023-11-18T08:25:26;65807.03;;;3.56;100.00
46614;BME280;32338;50.430;6.806;2023-11-18T08:27:53;65806.91;;;3.61;100.00
46614;BME280;32338;50.430;6.806;2023-11-18T08:30:19;65818.66;;;3.71;100.00
46614;BME280;32338;50.430;6.806;2023-11-18T08:32:47;65824.97;;;3.72;100.00
46614;BME280;32338;50.430;6.806;2023-11-18T08:35:14;65826.41;;;3.71;100.00
46614;BME280;32338;50.430;6.806;2023-11-18T08:37:42;65830.00;;;3.77;100.00
46614;BME280;32338;50.430;6.806;2023-11-18T08:40:10;65836.34;;;3.85;100.00
46614;BME280;32338;50.430;6.806;2023-11-18T08:42:42;65833.34;;;3.80;100.00
46614;BME280;32338;50.430;6.806;2023-11-18T08:45:14;65817.88;;;3.68;100.00
46614;BME280;32338;50.430;6.806;2023-11-18T08:47:42;65833.75;;;3.85;100.00
46614;BME280;32338;50.430;6.806;2023-11-18T08:50:09;65833.56;;;3.83;100.00
46614;BME280;32338;50.430;6.806;2023-11-18T08:52:37;65844.91;;;3.88;100.00
46614;BME280;32338;50.430;6.806;2023-11-18T08:55:09;65837.88;;;3.92;100.00
46614;BME280;32338;50.430;6.806;2023-11-18T08:57:44;65820.69;;;3.71;100.00
46614;BME280;32338;50.430;6.806;2023-11-18T09:00:25;65837.06;;;3.81;100.00
46614;BME280;32338;50.430;6.806;2023-11-18T09:03:09;65842.72;;;3.94;100.00
46614;BME280;32338;50.430;6.806;2023-11-18T09:05:43;65854.28;;;4.02;100.00
46614;BME280;32338;50.430;6.806;2023-11-18T09:08:22;65852.25;;;4.02;100.00
46614;BME280;32338;50.430;6.806;2023-11-18T09:10:49;65853.31;;;3.96;100.00
46614;BME280;32338;50.430;6.806;2023-11-18T09:13:21;65854.63;;;4.00;100.00
46614;BME280;32338;50.430;6.806;2023-11-18T09:15:48;65842.53;;;3.91;100.00
46614;BME280;32338;50.430;6.806;2023-11-18T09:18:15;65841.94;;;3.90;100.00
46614;BME280;32338;50.430;6.806;2023-11-18T09:20:43;65847.56;;;3.96;100.00
46614;BME280;32338;50.430;6.806;2023-11-18T09:23:10;65854.84;;;4.02;100.00
46614;BME280;32338;50.430;6.806;2023-11-18T09:25:37;65872.34;;;4.14;100.00
46614;BME280;32338;50.430;6.806;2023-11-18T09:28:05;65855.97;;;4.03;100.00
46614;BME280;32338;50.430;6.806;2023-11-18T09:30:37;65861.00;;;4.08;100.00
46614;BME280;32338;50.430;6.806;2023-11-18T09:33:17;65852.03;;;4.00;100.00
46614;BME280;32338;50.430;6.806;2023-11-18T09:35:52;65860.44;;;4.08;100.00
46614;BME280;32338;50.430;6.806;2023-11-18T09:38:21;65861.38;;;4.06;100.00
46614;BME280;32338;50.430;6.806;2023-11-18T09:40:51;65869.56;;;4.11;100.00
46614;BME280;32338;50.430;6.806;2023-11-18T09:43:19;65868.44;;;4.10;100.00
46614;BME280;32338;50.430;6.806;2023-11-18T09:45:50;65867.38;;;4.16;100.00
46614;BME280;32338;50.430;6.806;2023-11-18T09:48:20;65871.09;;;4.17;100.00
46614;BME280;32338;50.430;6.806;2023-11-18T09:50:51;65857.84;;;4.08;100.00
46614;BME280;32338;50.430;6.806;2023-11-18T09:53:19;65841.19;;;3.87;100.00
46614;BME280;32338;50.430;6.806;2023-11-18T09:55:50;65853.50;;;3.99;100.00
46614;BME280;32338;50.430;6.806;2023-11-18T09:58:21;65859.47;;;4.02;100.00
46614;BME280;32338;50.430;6.806;2023-11-18T10:00:57;65851.47;;;3.99;100.00
46614;BME280;32338;50.430;6.806;2023-11-18T10:03:27;65857.31;;;4.07;100.00
46614;BME280;32338;50.430;6.806;2023-11-18T10:05:55;65859.31;;;4.06;100.00
46614;BME280;32338;50.430;6.806;2023-11-18T10:08:27;65856.31;;;4.01;100.00
46614;BME280;32338;50.430;6.806;2023-11-18T10:10:55;65849.81;;;3.98;100.00
46614;BME280;32338;50.430;6.806;2023-11-18T10:13:31;65853.72;;;4.01;100.00
46614;BME280;32338;50.430;6.806;2023-11-18T10:16:01;65872.34;;;4.14;100.00
46614;BME280;32338;50.430;6.806;2023-11-18T10:18:30;65872.56;;;4.16;100.00
46614;BME280;32338;50.430;6.806;2023-11-18T10:21:00;65870.88;;;4.15;100.00
46614;BME280;32338;50.430;6.806;2023-11-18T10:23:29;65866.25;;;4.15;100.00
46614;BME280;32338;50.430;6.806;2023-11-18T10:25:59;65867.72;;;4.14;100.00
46614;BME280;32338;50.430;6.806;2023-11-18T10:28:29;65872.22;;;4.18;100.00
46614;BME280;32338;50.430;6.806;2023-11-18T10:30:59;65871.66;;;4.18;100.00
46614;BME280;32338;50.430;6.806;2023-11-18T10:33:30;65878.94;;;4.25;100.00
46614;BME280;32338;50.430;6.806;2023-11-18T10:35:58;65875.56;;;4.21;100.00
46614;BME280;32338;50.430;6.806;2023-11-18T10:38:29;65872.97;;;4.21;100.00
46614;BME280;32338;50.430;6.806;2023-11-18T10:40:57;65879.63;;;4.20;100.00
46614;BME280;32338;50.430;6.806;2023-11-18T10:43:25;65891.06;;;4.33;100.00
46614;BME280;32338;50.430;6.806;2023-11-18T10:46:04;65883.41;;;4.29;100.00
46614;BME280;32338;50.430;6.806;2023-11-18T10:48:39;65884.34;;;4.27;100.00
46614;BME280;32338;50.430;6.806;2023-11-18T10:51:08;65887.47;;;4.28;100.00
46614;BME280;32338;50.430;6.806;2023-11-18T10:53:38;65894.75;;;4.34;100.00
46614;BME280;32338;50.430;6.806;2023-11-18T10:56:16;65885.09;;;4.30;100.00
46614;BME280;32338;50.430;6.806;2023-11-18T10:58:45;65884.53;;;4.30;100.00
46614;BME280;32338;50.430;6.806;2023-11-18T11:01:11;65896.66;;;4.38;100.00
46614;BME280;32338;50.430;6.806;2023-11-18T11:03:52;65886.00;;;4.29;100.00
46614;BME280;32338;50.430;6.806;2023-11-18T11:06:22;65888.81;;;4.31;100.00
46614;BME280;32338;50.430;6.806;2023-11-18T11:08:49;65900.41;;;4.47;100.00
46614;BME280;32338;50.430;6.806;2023-11-18T11:11:19;65912.34;;;4.53;100.00
46614;BME280;32338;50.430;6.806;2023-11-18T11:13:47;65901.19;;;4.50;100.00
46614;BME280;32338;50.430;6.806;2023-11-18T11:16:18;65891.81;;;4.36;100.00
46614;BME280;32338;50.430;6.806;2023-11-18T11:18:52;65909.91;;;4.48;100.00
46614;BME280;32338;50.430;6.806;2023-11-18T11:21:23;65911.59;;;4.50;100.00
46614;BME280;32338;50.430;6.806;2023-11-18T11:23:55;65895.19;;;4.40;100.00
46614;BME280;32338;50.430;6.806;2023-11-18T11:26:33;65906.19;;;4.47;100.00
46614;BME280;32338;50.430;6.806;2023-11-18T11:29:13;65898.13;;;4.37;100.00
46614;BME280;32338;50.430;6.806;2023-11-18T11:31:47;65896.28;;;4.41;100.00
46614;BME280;32338;50.430;6.806;2023-11-18T11:34:20;65897.63;;;4.44;100.00
46614;BME280;32338;50.430;6.806;2023-11-18T11:36:50;65904.13;;;4.48;100.00
46614;BME280;32338;50.430;6.806;2023-11-18T11:39:18;65907.31;;;4.48;100.00
46614;BME280;32338;50.430;6.806;2023-11-18T11:41:51;65886.63;;;4.36;100.00
46614;BME280;32338;50.430;6.806;2023-11-18T11:44:20;65901.72;;;4.43;100.00
46614;BME280;32338;50.430;6.806;2023-11-18T11:46:50;65907.66;;;4.46;100.00
46614;BME280;32338;50.430;6.806;2023-11-18T11:49:20;65903.00;;;4.47;100.00
46614;BME280;32338;50.430;6.806;2023-11-18T11:51:49;65901.91;;;4.46;100.00
46614;BME280;32338;50.430;6.806;2023-11-18T11:54:21;65912.75;;;4.58;100.00
46614;BME280;32338;50.430;6.806;2023-11-18T11:56:52;65917.94;;;4.58;100.00
46614;BME280;32338;50.430;6.806;2023-11-18T11:59:54;65915.34;;;4.58;100.00
46614;BME280;32338;50.430;6.806;2023-11-18T12:02:22;65920.41;;;4.63;100.00
46614;BME280;32338;50.430;6.806;2023-11-18T12:04:53;65915.13;;;4.55;100.00
46614;BME280;32338;50.430;6.806;2023-11-18T12:07:23;65926.00;;;4.68;100.00
46614;BME280;32338;50.430;6.806;2023-11-18T12:09:55;65939.44;;;4.80;100.00
46614;BME280;32338;50.430;6.806;2023-11-18T12:12:24;65950.44;;;4.88;100.00
46614;BME280;32338;50.430;6.806;2023-11-18T12:14:53;65956.63;;;4.94;100.00
46614;BME280;32338;50.430;6.806;2023-11-18T12:17:22;65967.84;;;5.04;100.00
46614;BME280;32338;50.430;6.806;2023-11-18T12:19:50;65961.09;;;4.98;100.00
46614;BME280;32338;50.430;6.806;2023-11-18T12:22:25;65971.97;;;5.10;100.00
46614;BME280;32338;50.430;6.806;2023-11-18T12:25:28;65971.25;;;5.14;100.00
46614;BME280;32338;50.430;6.806;2023-11-18T12:27:56;65960.75;;;5.00;100.00
46614;BME280;32338;50.430;6.806;2023-11-18T12:30:46;65955.16;;;4.95;100.00
46614;BME280;32338;50.430;6.806;2023-11-18T12:33:22;65936.66;;;4.78;100.00
46614;BME280;32338;50.430;6.806;2023-11-18T12:42:04;65944.28;;;4.82;100.00
46614;BME280;32338;50.430;6.806;2023-11-18T12:44:40;65945.22;;;4.81;100.00
46614;BME280;32338;50.430;6.806;2023-11-18T12:47:19;65942.97;;;4.79;100.00
46614;BME280;32338;50.430;6.806;2023-11-18T12:49:48;65939.81;;;4.78;100.00
46614;BME280;32338;50.430;6.806;2023-11-18T12:52:20;65939.44;;;4.80;100.00
46614;BME280;32338;50.430;6.806;2023-11-18T12:54:49;65949.50;;;4.82;100.00
46614;BME280;32338;50.430;6.806;2023-11-18T12:57:18;65935.53;;;4.77;100.00
46614;BME280;32338;50.430;6.806;2023-11-18T12:59:48;65946.97;;;4.90;100.00
46614;BME280;32338;50.430;6.806;2023-11-18T13:02:16;65947.09;;;4.85;100.00
46614;BME280;32338;50.430;6.806;2023-11-18T13:04:45;65937.38;;;4.74;100.00
46614;BME280;32338;50.430;6.806;2023-11-18T13:07:13;65937.78;;;4.79;100.00
46614;BME280;32338;50.430;6.806;2023-11-18T13:09:40;65928.25;;;4.70;100.00
46614;BME280;32338;50.430;6.806;2023-11-18T13:12:13;65925.44;;;4.67;100.00
46614;BME280;32338;50.430;6.806;2023-11-18T13:14:42;65928.19;;;4.63;100.00